createdAt,value
2019-04-25T00:00:55.122Z,97421.74
2019-04-25T00:03:42.537Z,97421.20
2019-04-25T00:06:14.789Z,97413.10
2019-04-25T00:08:46.286Z,97412.67
2019-04-25T00:11:17.793Z,97408.30
2019-04-25T00:13:49.367Z,97416.07
2019-04-25T00:16:22.592Z,97419.39
2019-04-25T00:18:54.058Z,97410.88
2019-04-25T00:21:26.891Z,97408.22
2019-04-25T00:23:58.750Z,97410.39
2019-04-25T00:26:31.842Z,97415.34
2019-04-25T00:29:04.030Z,97416.58
2019-04-25T00:31:35.428Z,97417.22
2019-04-25T00:34:07.186Z,97415.00
2019-04-25T00:36:39.120Z,97417.14
2019-04-25T00:39:11.844Z,97419.75
2019-04-25T00:41:45.160Z,97422.42
2019-04-25T00:44:16.204Z,97430.83
2019-04-25T00:46:49.232Z,97434.52
2019-04-25T00:49:22.035Z,97434.73
2019-04-25T00:51:53.830Z,97436.73
2019-04-25T00:54:25.033Z,97436.27
2019-04-25T00:56:56.425Z,97435.56
2019-04-25T00:59:32.051Z,97442.76
2019-04-25T01:02:21.487Z,97448.03
2019-04-25T01:04:54.158Z,97451.93
2019-04-25T01:07:24.742Z,97458.67
2019-04-25T01:09:56.306Z,97457.20
2019-04-25T01:12:27.473Z,97444.72
2019-04-25T01:14:58.901Z,97448.53
2019-04-25T01:17:31.507Z,97451.33
2019-04-25T01:20:07.748Z,97443.30
2019-04-25T01:22:38.994Z,97449.28
2019-04-25T01:25:11.037Z,97453.64
2019-04-25T01:27:43.322Z,97453.77
2019-04-25T01:30:16.152Z,97450.84
2019-04-25T01:32:48.278Z,97451.44
2019-04-25T01:35:36.741Z,97460.63
2019-04-25T01:38:15.423Z,97459.16
2019-04-25T01:40:51.333Z,97456.84
2019-04-25T01:43:24.299Z,97456.35
2019-04-25T01:45:56.573Z,97459.80
2019-04-25T01:48:27.807Z,97465.50
2019-04-25T01:50:58.552Z,97468.29
2019-04-25T01:53:30.109Z,97463.48
2019-04-25T01:56:05.878Z,97458.00
2019-04-25T01:58:34.775Z,97463.42
2019-04-25T02:01:06.097Z,97460.44
2019-04-25T02:03:37.552Z,97459.59
2019-04-25T02:06:08.792Z,97469.52
2019-04-25T02:08:41.371Z,97469.91
2019-04-25T02:11:24.042Z,97469.01
2019-04-25T02:13:57.531Z,97474.53
2019-04-25T02:16:31.482Z,97478.87
2019-04-25T02:19:04.018Z,97475.44
2019-04-25T02:21:35.533Z,97472.84
2019-04-25T02:24:06.863Z,97476.34
2019-04-25T02:26:38.128Z,97475.06
2019-04-25T02:29:08.543Z,97483.91
2019-04-25T02:31:39.909Z,97492.67
2019-04-25T02:34:17.446Z,97489.56
2019-04-25T02:36:47.298Z,97486.97
2019-04-25T02:39:19.267Z,97485.55
2019-04-25T02:41:50.631Z,97494.36
2019-04-25T02:44:21.860Z,97491.73
2019-04-25T02:47:00.333Z,97494.03
2019-04-25T02:49:38.668Z,97493.24
2019-04-25T02:52:13.012Z,97493.52
2019-04-25T02:54:44.909Z,97498.64
2019-04-25T02:57:16.017Z,97496.36
2019-04-25T02:59:47.156Z,97497.27
2019-04-25T03:02:18.653Z,97502.33
2019-04-25T03:04:49.770Z,97504.98
2019-04-25T03:07:20.018Z,97509.72
2019-04-25T03:09:51.655Z,97516.31
2019-04-25T03:12:30.739Z,97510.28
2019-04-25T03:14:56.180Z,97509.49
2019-04-25T03:17:27.265Z,97520.27
2019-04-25T03:20:18.596Z,97523.70
2019-04-25T03:22:49.799Z,97518.29
2019-04-25T03:28:49.638Z,97523.23
2019-04-25T03:31:27.185Z,97524.20
2019-04-25T03:33:58.183Z,97529.11
2019-04-25T03:36:31.168Z,97531.11
2019-04-25T03:39:08.744Z,97529.70
2019-04-25T03:41:40.171Z,97527.80
2019-04-25T03:44:16.937Z,97531.25
2019-04-25T03:46:47.367Z,97527.41
2019-04-25T03:49:21.950Z,97522.18
2019-04-25T03:51:58.508Z,97523.14
2019-04-25T03:54:33.423Z,97523.56
2019-04-25T03:57:06.655Z,97528.61
2019-04-25T03:59:38.602Z,97528.36
2019-04-25T04:02:20.336Z,97534.56
2019-04-25T04:04:53.770Z,97536.90
2019-04-25T04:07:25.423Z,97540.50
2019-04-25T04:09:56.514Z,97551.83
2019-04-25T04:12:26.801Z,97553.97
2019-04-25T04:14:58.382Z,97559.55
2019-04-25T04:17:31.183Z,97568.92
2019-04-25T04:20:05.629Z,97564.09
2019-04-25T04:22:44.475Z,97553.62
2019-04-25T04:25:17.353Z,97558.95
2019-04-25T04:27:48.506Z,97550.48
2019-04-25T04:30:20.053Z,97552.56
2019-04-25T04:32:51.239Z,97551.66
2019-04-25T04:35:23.479Z,97556.91
2019-04-25T04:37:54.827Z,97563.73
2019-04-25T04:40:26.342Z,97565.17
2019-04-25T04:42:57.557Z,97562.89
2019-04-25T04:45:28.899Z,97564.27
2019-04-25T04:48:00.127Z,97569.52
2019-04-25T04:50:30.570Z,97570.66
2019-04-25T04:53:02.011Z,97575.06
2019-04-25T04:55:34.334Z,97576.30
2019-04-25T04:58:07.487Z,97574.75
2019-04-25T05:00:38.757Z,97578.80
2019-04-25T05:03:30.445Z,97582.88
2019-04-25T05:06:09.153Z,97580.83
2019-04-25T05:08:45.295Z,97581.79
2019-04-25T05:11:18.121Z,97589.45
2019-04-25T05:13:49.665Z,97587.88
2019-04-25T05:16:21.682Z,97584.67
2019-04-25T05:18:55.338Z,97589.64
2019-04-25T05:21:26.585Z,97593.75
2019-04-25T05:23:57.904Z,97604.84
2019-04-25T05:26:28.941Z,97605.41
2019-04-25T05:36:36.532Z,97609.63
2019-04-25T05:39:15.623Z,97604.06
2019-04-25T05:42:17.145Z,97613.47
2019-04-25T05:45:00.336Z,97615.44
2019-04-25T05:47:50.088Z,97610.22
2019-04-25T05:54:39.921Z,97599.89
2019-04-25T06:00:46.616Z,97603.44
2019-04-25T06:10:43.881Z,97610.28
2019-04-25T06:14:08.212Z,97601.73
2019-04-25T06:17:57.131Z,97603.78
2019-04-25T06:38:27.248Z,97583.33
2019-04-25T06:41:00.354Z,97583.31
2019-04-25T06:43:37.584Z,97579.84
2019-04-25T06:46:30.649Z,97586.81
2019-04-25T06:49:04.738Z,97587.36
2019-04-25T06:53:08.420Z,97587.47
2019-04-25T06:54:55.847Z,97579.16
2019-04-25T06:57:44.097Z,97565.86
2019-04-25T07:00:17.174Z,97565.51
2019-04-25T07:02:48.287Z,97565.03
2019-04-25T07:05:31.146Z,97561.20
2019-04-25T07:08:03.333Z,97553.57
2019-04-25T07:10:40.922Z,97548.03
2019-04-25T07:13:16.537Z,97546.86
2019-04-25T07:15:47.582Z,97549.35
2019-04-25T07:18:20.312Z,97552.02
2019-04-25T07:20:56.961Z,97559.33
2019-04-25T07:23:38.262Z,97555.41
2019-04-25T07:26:18.678Z,97557.11
2019-04-25T07:29:09.868Z,97554.36
2019-04-25T07:31:45.588Z,97554.83
2019-04-25T07:34:26.512Z,97549.81
2019-04-25T07:37:24.177Z,97540.45
2019-04-25T07:39:56.895Z,97542.47
2019-04-25T07:42:35.450Z,97540.59
2019-04-25T07:45:27.006Z,97543.03
2019-04-25T07:48:16.769Z,97543.48
2019-04-25T07:50:50.842Z,97543.48
2019-04-25T07:53:23.737Z,97537.89
2019-04-25T07:56:04.238Z,97537.01
2019-04-25T07:58:43.645Z,97531.46
2019-04-25T08:01:05.500Z,97528.59
2019-04-25T08:03:38.234Z,97517.63
2019-04-25T08:06:22.037Z,97514.69
2019-04-25T08:08:54.441Z,97518.91
2019-04-25T08:11:34.139Z,97521.35
2019-04-25T08:14:10.740Z,97512.53
2019-04-25T08:17:07.675Z,97510.01
2019-04-25T08:19:41.935Z,97498.44
2019-04-25T08:22:34.521Z,97494.97
2019-04-25T08:25:30.745Z,97484.74
2019-04-25T08:28:08.150Z,97483.16
2019-04-25T08:30:39.384Z,97484.36
2019-04-25T08:33:13.885Z,97484.56
2019-04-25T08:36:04.318Z,97478.22
2019-04-25T08:38:23.747Z,97486.82
2019-04-25T08:41:05.389Z,97480.35
2019-04-25T08:43:39.154Z,97473.41
2019-04-25T08:46:23.454Z,97468.56
2019-04-25T08:49:06.282Z,97470.09
2019-04-25T08:51:42.100Z,97462.19
2019-04-25T08:54:16.302Z,97456.66
2019-04-25T08:56:57.882Z,97454.39
2019-04-25T08:59:52.842Z,97459.67
2019-04-25T09:02:44.720Z,97461.41
2019-04-25T09:05:19.733Z,97458.48
2019-04-25T09:07:54.687Z,97452.30
2019-04-25T09:10:28.548Z,97456.31
2019-04-25T09:12:59.647Z,97444.19
2019-04-25T09:15:30.739Z,97442.38
2019-04-25T09:18:01.935Z,97438.75
2019-04-25T09:20:38.058Z,97445.92
2019-04-25T09:23:05.034Z,97438.45
2019-04-25T09:25:36.811Z,97431.10
2019-04-25T09:28:11.553Z,97432.74
2019-04-25T09:30:44.916Z,97428.70
2019-04-25T09:33:17.023Z,97423.77
2019-04-25T09:35:48.147Z,97426.77
2019-04-25T09:38:19.209Z,97423.34
2019-04-25T09:40:55.947Z,97425.13
2019-04-25T09:43:27.005Z,97421.91
2019-04-25T09:46:03.268Z,97417.55
2019-04-25T09:48:40.293Z,97414.70
2019-04-25T09:51:13.575Z,97402.80
2019-04-25T09:53:50.982Z,97403.64
2019-04-25T09:56:24.654Z,97406.69
2019-04-25T09:58:57.271Z,97390.96
2019-04-25T10:01:29.124Z,97393.47
2019-04-25T10:04:06.225Z,97391.67
2019-04-25T10:06:38.898Z,97396.47
2019-04-25T10:09:11.104Z,97382.80
2019-04-25T10:11:43.963Z,97380.15
2019-04-25T10:14:30.001Z,97370.75
2019-04-25T10:17:04.491Z,97364.91
2019-04-25T10:19:35.751Z,97365.26
2019-04-25T10:22:06.916Z,97358.35
2019-04-25T10:24:38.512Z,97358.35
2019-04-25T10:27:09.568Z,97355.65
2019-04-25T10:29:47.278Z,97344.66
2019-04-25T10:32:15.077Z,97353.70
2019-04-25T10:34:47.929Z,97338.44
2019-04-25T10:37:19.103Z,97334.75
2019-04-25T10:39:50.237Z,97328.09
2019-04-25T10:42:21.418Z,97330.30
2019-04-25T10:44:54.006Z,97318.50
2019-04-25T10:47:25.249Z,97317.16
2019-04-25T10:49:55.913Z,97317.16
2019-04-25T10:52:27.477Z,97323.53
2019-04-25T10:54:58.462Z,97326.08
2019-04-25T10:57:30.087Z,97315.73
2019-04-25T11:00:07.505Z,97314.70
2019-04-25T11:02:34.434Z,97317.95
2019-04-25T11:05:09.672Z,97318.52
2019-04-25T11:07:41.958Z,97314.00
2019-04-25T11:10:17.214Z,97318.19
2019-04-25T11:12:50.929Z,97319.84
2019-04-25T11:15:23.393Z,97315.80
2019-04-25T11:17:55.071Z,97312.39
2019-04-25T11:20:28.588Z,97307.88
2019-04-25T11:22:58.822Z,97298.73
2019-04-25T11:25:30.080Z,97299.45
2019-04-25T11:28:04.829Z,97302.66
2019-04-25T11:30:36.263Z,97293.53
2019-04-25T11:33:10.323Z,97298.20
2019-04-25T11:35:40.906Z,97293.77
2019-04-25T11:38:13.846Z,97295.37
2019-04-25T11:40:49.331Z,97288.89
2019-04-25T11:43:20.008Z,97281.75
2019-04-25T11:45:52.185Z,97281.36
2019-04-25T11:48:24.332Z,97285.55
2019-04-25T11:50:55.944Z,97280.73
2019-04-25T11:53:27.302Z,97281.22
2019-04-25T11:55:58.608Z,97278.88
2019-04-25T11:58:30.351Z,97291.85
2019-04-25T12:01:01.617Z,97280.81
2019-04-25T12:03:33.641Z,97279.34
2019-04-25T12:06:05.174Z,97280.21
2019-04-25T12:08:38.144Z,97277.97
2019-04-25T12:11:09.250Z,97279.20
2019-04-25T12:13:45.983Z,97270.48
2019-04-25T12:16:16.533Z,97265.67
2019-04-25T12:18:50.152Z,97263.95
2019-04-25T12:21:20.562Z,97263.81
2019-04-25T12:23:52.020Z,97265.05
2019-04-25T12:26:25.881Z,97260.88
2019-04-25T12:28:56.614Z,97254.58
2019-04-25T12:31:27.602Z,97249.55
2019-04-25T12:34:00.798Z,97244.66
2019-04-25T12:36:34.073Z,97241.77
2019-04-25T12:39:07.177Z,97242.09
2019-04-25T12:41:38.786Z,97251.38
2019-04-25T12:44:14.437Z,97234.86
2019-04-25T12:46:50.536Z,97253.25
2019-04-25T12:49:21.668Z,97246.31
2019-04-25T12:51:54.910Z,97235.09
2019-04-25T12:54:25.902Z,97239.83
2019-04-25T12:56:57.395Z,97232.85
2019-04-25T12:59:28.598Z,97233.28
2019-04-25T13:02:00.928Z,97233.31
2019-04-25T13:04:33.152Z,97227.08
2019-04-25T13:07:05.432Z,97224.80
2019-04-25T13:09:36.464Z,97220.55
2019-04-25T13:12:09.095Z,97232.67
2019-04-25T13:14:40.102Z,97217.70
2019-04-25T13:17:10.314Z,97213.57
2019-04-25T13:19:41.638Z,97229.73
2019-04-25T13:22:12.791Z,97236.41
2019-04-25T13:24:44.349Z,97222.09
2019-04-25T13:27:16.966Z,97218.29
2019-04-25T13:30:03.135Z,97213.11
2019-04-25T13:32:52.616Z,97209.52
2019-04-25T13:35:25.675Z,97219.28
2019-04-25T13:37:57.524Z,97219.28
2019-04-25T13:40:28.812Z,97215.45
2019-04-25T13:43:00.094Z,97218.56
2019-04-25T13:45:31.434Z,97211.31
2019-04-25T13:48:04.702Z,97212.83
2019-04-25T13:50:35.239Z,97212.83
2019-04-25T13:53:06.254Z,97215.20
2019-04-25T13:55:37.507Z,97196.67
2019-04-25T13:58:09.177Z,97196.67
2019-04-25T14:00:39.261Z,97197.30
2019-04-25T14:03:10.638Z,97182.23
2019-04-25T14:05:41.659Z,97175.84
2019-04-25T14:08:13.141Z,97174.28
2019-04-25T14:10:47.387Z,97164.91
2019-04-25T14:13:18.789Z,97149.05
2019-04-25T14:15:51.411Z,97157.00
2019-04-25T14:18:31.502Z,97152.44
2019-04-25T14:21:09.985Z,97149.64
2019-04-25T14:23:41.095Z,97149.64
2019-04-25T14:26:13.175Z,97156.03
2019-04-25T14:28:44.435Z,97150.67
2019-04-25T14:31:30.438Z,97150.67
2019-04-25T14:33:51.712Z,97144.13
2019-04-25T14:36:25.800Z,97144.46
2019-04-25T14:38:54.591Z,97136.19
2019-04-25T14:41:26.099Z,97131.59
2019-04-25T14:43:56.993Z,97129.23
2019-04-25T14:46:28.277Z,97123.38
2019-04-25T14:48:59.177Z,97125.72
2019-04-25T14:51:30.697Z,97114.50
2019-04-25T14:54:03.295Z,97114.00
2019-04-25T14:56:52.454Z,97111.83
2019-04-25T14:59:24.439Z,97112.25
2019-04-25T15:01:57.441Z,97109.19
2019-04-25T15:04:28.480Z,97103.93
2019-04-25T15:06:59.616Z,97100.48
2019-04-25T15:09:30.915Z,97104.06
2019-04-25T15:12:02.115Z,97091.67
2019-04-25T15:14:33.518Z,97091.67
2019-04-25T15:17:06.294Z,97088.63
2019-04-25T15:19:37.220Z,97076.83
2019-04-25T15:22:07.588Z,97076.83
2019-04-25T15:24:47.615Z,97085.12
2019-04-25T15:27:19.266Z,97083.97
2019-04-25T15:29:50.748Z,97079.41
2019-04-25T15:32:23.301Z,97071.24
2019-04-25T15:34:56.261Z,97078.77
2019-04-25T15:37:28.907Z,97074.41
2019-04-25T15:40:04.226Z,97068.68
2019-04-25T15:42:55.467Z,97069.27
2019-04-25T15:45:28.614Z,97066.00
2019-04-25T15:47:59.650Z,97057.72
2019-04-25T15:50:31.856Z,97056.29
2019-04-25T15:53:02.845Z,97051.51
2019-04-25T15:55:34.800Z,97054.38
2019-04-25T15:58:05.805Z,97056.67
2019-04-25T16:00:38.908Z,97054.36
2019-04-25T16:03:10.004Z,97039.20
2019-04-25T16:05:43.466Z,97046.77
2019-04-25T16:08:14.872Z,97038.63
2019-04-25T16:10:45.956Z,97033.25
2019-04-25T16:13:17.198Z,97032.55
2019-04-25T16:15:48.178Z,97028.41
2019-04-25T16:18:19.638Z,97024.53
2019-04-25T16:20:50.619Z,97021.04
2019-04-25T16:23:21.892Z,97015.36
2019-04-25T16:25:52.898Z,97003.73
2019-04-25T16:28:24.226Z,96996.73
2019-04-25T16:30:55.336Z,97000.28
2019-04-25T16:33:26.455Z,97000.28
2019-04-25T16:35:57.524Z,97006.44
2019-04-25T16:38:27.771Z,97003.58
2019-04-25T16:40:58.961Z,97000.66
2019-04-25T16:43:32.271Z,96998.75
2019-04-25T16:46:03.536Z,96982.54
2019-04-25T16:48:34.457Z,96982.70
2019-04-25T16:51:05.842Z,96975.89
2019-04-25T16:53:37.827Z,96975.89
2019-04-25T16:56:09.217Z,96976.45
2019-04-25T16:58:40.797Z,96982.06
2019-04-25T17:01:13.401Z,96982.06
2019-04-25T17:03:44.862Z,96972.02
2019-04-25T17:06:16.067Z,96972.02
2019-04-25T17:08:48.486Z,96970.38
2019-04-25T17:11:18.622Z,96979.30
2019-04-25T17:13:51.439Z,96964.22
2019-04-25T17:16:30.684Z,96969.41
2019-04-25T17:19:03.671Z,96969.41
2019-04-25T17:21:34.801Z,96982.37
2019-04-25T17:24:07.749Z,96981.31
2019-04-25T17:26:39.514Z,96980.19
2019-04-25T17:29:12.660Z,96985.77
2019-04-25T17:31:47.878Z,96985.77
2019-04-25T17:34:23.950Z,96983.46
2019-04-25T17:37:11.324Z,96987.28
2019-04-25T17:39:45.563Z,96988.30
2019-04-25T17:42:16.560Z,96993.42
2019-04-25T17:44:47.719Z,96997.09
2019-04-25T17:47:18.670Z,96998.48
2019-04-25T17:49:49.818Z,96995.44
2019-04-25T17:52:20.889Z,96996.02
2019-04-25T17:54:50.909Z,97000.31
2019-04-25T17:57:22.098Z,96995.41
2019-04-25T17:59:53.120Z,96994.32
2019-04-25T18:02:24.307Z,96994.82
2019-04-25T18:04:55.172Z,96997.34
2019-04-25T18:07:26.538Z,96999.00
2019-04-25T18:09:57.464Z,97003.91
2019-04-25T18:12:28.490Z,97001.95
2019-04-25T18:15:01.085Z,97003.64
2019-04-25T18:17:32.320Z,97010.28
2019-04-25T18:20:05.554Z,97011.74
2019-04-25T18:22:44.165Z,97015.72
2019-04-25T18:25:16.763Z,97011.57
2019-04-25T18:27:55.027Z,97014.05
2019-04-25T18:30:25.939Z,97018.83
2019-04-25T18:33:10.068Z,97022.59
2019-04-25T18:35:38.849Z,97026.05
2019-04-25T18:38:21.946Z,97027.13
2019-04-25T18:40:57.826Z,97032.43
2019-04-25T18:43:33.233Z,97034.06
2019-04-25T18:46:06.096Z,97027.33
2019-04-25T18:48:37.046Z,97039.89
2019-04-25T18:51:08.306Z,97052.41
2019-04-25T18:53:52.844Z,97063.22
2019-04-25T18:56:25.604Z,97066.58
2019-04-25T18:59:16.213Z,97073.42
2019-04-25T19:01:57.691Z,97076.75
2019-04-25T19:04:32.801Z,97080.28
2019-04-25T19:07:04.073Z,97076.06
2019-04-25T19:09:34.960Z,97077.24
2019-04-25T19:12:06.099Z,97078.02
2019-04-25T19:14:37.020Z,97076.83
2019-04-25T19:17:09.601Z,97080.53
2019-04-25T19:19:41.106Z,97079.13
2019-04-25T19:22:12.321Z,97082.13
2019-04-25T19:24:45.057Z,97084.23
2019-04-25T19:27:23.577Z,97086.39
2019-04-25T19:29:47.921Z,97088.52
2019-04-25T19:32:18.783Z,97089.91
2019-04-25T19:34:50.818Z,97088.36
2019-04-25T19:37:21.747Z,97086.11
2019-04-25T19:40:09.665Z,97089.98
2019-04-25T19:42:51.191Z,97089.33
2019-04-25T19:45:22.379Z,97084.72
2019-04-25T19:47:53.253Z,97082.28
2019-04-25T19:50:24.279Z,97087.28
2019-04-25T19:52:55.210Z,97089.68
2019-04-25T19:55:26.322Z,97087.73
2019-04-25T19:57:57.270Z,97091.59
2019-04-25T20:00:28.399Z,97089.52
2019-04-25T20:03:03.621Z,97096.84
2019-04-25T20:05:35.267Z,97096.59
2019-04-25T20:08:25.970Z,97088.41
2019-04-25T20:11:03.869Z,97093.85
2019-04-25T20:13:35.013Z,97088.31
2019-04-25T20:16:05.950Z,97090.48
2019-04-25T20:18:37.112Z,97090.09
2019-04-25T20:21:08.013Z,97094.17
2019-04-25T20:23:39.260Z,97100.91
2019-04-25T20:26:10.141Z,97103.98
2019-04-25T20:28:42.689Z,97102.33
2019-04-25T20:31:13.624Z,97104.97
2019-04-25T20:33:45.574Z,97103.46
2019-04-25T20:36:17.975Z,97114.80
2019-04-25T20:38:49.276Z,97105.05
2019-04-25T20:41:20.320Z,97109.95
2019-04-25T20:43:52.814Z,97110.92
2019-04-25T20:46:23.837Z,97111.28
2019-04-25T20:48:54.400Z,97118.39
2019-04-25T20:51:25.704Z,97122.24
2019-04-25T20:53:57.082Z,97119.86
2019-04-25T20:56:28.448Z,97125.81
2019-04-25T20:58:59.302Z,97125.03
2019-04-25T21:01:30.601Z,97130.09
2019-04-25T21:04:12.682Z,97131.95
2019-04-25T21:06:41.035Z,97130.98
2019-04-25T21:09:11.860Z,97132.14
2019-04-25T21:11:42.930Z,97129.91
2019-04-25T21:14:15.380Z,97127.30
2019-04-25T21:16:48.061Z,97130.30
2019-04-25T21:19:26.040Z,97131.34
2019-04-25T21:21:58.714Z,97130.68
2019-04-25T21:24:29.765Z,97125.31
2019-04-25T21:27:00.056Z,97133.81
2019-04-25T21:29:32.167Z,97134.45
2019-04-25T21:32:03.132Z,97135.61
2019-04-25T21:34:34.412Z,97134.86
2019-04-25T21:37:05.662Z,97144.30
2019-04-25T21:39:40.002Z,97155.83
2019-04-25T21:42:28.350Z,97161.52
2019-04-25T21:45:00.469Z,97154.81
2019-04-25T21:47:31.436Z,97175.06
2019-04-25T21:50:03.109Z,97170.03
2019-04-25T21:52:34.450Z,97169.38
2019-04-25T21:55:06.995Z,97174.41
2019-04-25T21:57:38.020Z,97183.02
2019-04-25T22:00:11.932Z,97196.19
2019-04-25T22:02:42.970Z,97200.08
2019-04-25T22:05:13.431Z,97215.24
2019-04-25T22:07:45.005Z,97220.56
2019-04-25T22:10:16.458Z,97230.23
2019-04-25T22:12:47.473Z,97244.08
2019-04-25T22:15:18.603Z,97246.23
2019-04-25T22:17:49.823Z,97242.55
2019-04-25T22:20:20.689Z,97252.02
2019-04-25T22:22:54.341Z,97260.54
2019-04-25T22:25:25.198Z,97264.87
2019-04-25T22:27:57.693Z,97272.37
2019-04-25T22:30:29.510Z,97278.86
2019-04-25T22:33:11.161Z,97289.16
2019-04-25T22:35:43.745Z,97284.84
2019-04-25T22:38:14.997Z,97284.00
2019-04-25T22:40:45.866Z,97283.06
2019-04-25T22:43:16.614Z,97288.66
2019-04-25T22:45:48.011Z,97283.02
2019-04-25T22:48:20.504Z,97273.82
2019-04-25T22:50:51.890Z,97275.46
2019-04-25T22:53:26.026Z,97279.33
2019-04-25T22:55:55.744Z,97283.15
2019-04-25T22:58:26.620Z,97284.42
2019-04-25T23:00:57.817Z,97286.55
2019-04-25T23:03:33.004Z,97289.85
2019-04-25T23:06:04.569Z,97296.14
2019-04-25T23:08:36.498Z,97292.66
2019-04-25T23:11:08.453Z,97303.81
2019-04-25T23:13:39.357Z,97305.21
2019-04-25T23:16:09.535Z,97303.95
2019-04-25T23:18:40.673Z,97308.13
2019-04-25T23:21:12.450Z,97305.22
2019-04-25T23:23:43.519Z,97307.28
2019-04-25T23:26:21.914Z,97318.31
2019-04-25T23:28:55.046Z,97315.66
2019-04-25T23:31:33.659Z,97318.62
2019-04-25T23:34:06.089Z,97318.17
2019-04-25T23:36:37.710Z,97307.33
2019-04-25T23:39:09.409Z,97310.41
2019-04-25T23:41:40.644Z,97313.09
2019-04-25T23:44:12.102Z,97311.37
2019-04-25T23:46:43.192Z,97313.78
2019-04-25T23:49:14.827Z,97328.24
2019-04-25T23:51:45.719Z,97328.27
2019-04-25T23:54:17.201Z,97325.82
2019-04-25T23:56:48.376Z,97320.27
2019-04-25T23:59:19.210Z,97309.70
